Time;durP1;ratioP1;P1;durP2;ratioP2;P2;SDS_P1;SDS_P2;PMS_P1;PMS_P2;Temp;Humidity;BMP_temperature;BMP_pressure;BME280_temperature;BME280_humidity;BME280_pressure;Samples;Min_cycle;Max_cycle;Signal;HPM_P1;HPM_P2
2022/11/07 00:01:34;;;;;;;;;5.67;4.33;;;;;12.33;78.27;100382.22;5077237;28;45398;-59
2022/11/07 00:04:00;;;;;;;;;4.00;4.00;;;;;12.33;78.49;100384.88;5076931;28;45580;-59
2022/11/07 00:06:25;;;;;;;;;6.67;5.00;;;;;12.35;77.96;100398.84;5076609;28;46113;-56
2022/11/07 00:08:52;;;;;;;;;4.67;3.67;;;;;12.33;78.17;100393.66;5057963;28;45518;-58
2022/11/07 00:11:18;;;;;;;;;5.67;5.67;;;;;12.35;78.07;100401.47;5077221;28;45553;-57
2022/11/07 00:13:44;;;;;;;;;4.00;4.00;;;;;12.37;78.39;100402.28;5076597;27;45645;-58
2022/11/07 00:16:10;;;;;;;;;6.67;3.67;;;;;12.37;77.68;100404.91;5076203;28;45850;-59
2022/11/07 00:18:35;;;;;;;;;5.00;5.00;;;;;12.37;78.16;100399.63;5076712;28;45464;-57
2022/11/07 00:21:02;;;;;;;;;4.00;3.00;;;;;12.38;78.52;100409.25;5076619;28;45385;-55
2022/11/07 00:23:27;;;;;;;;;4.67;3.33;;;;;12.38;77.90;100411.88;5076636;28;45374;-57
2022/11/07 00:25:52;;;;;;;;;6.67;5.67;;;;;12.38;77.92;100410.13;5076251;28;46524;-62
2022/11/07 00:28:18;;;;;;;;;7.00;5.33;;;;;12.40;77.82;100409.19;5076359;28;45475;-59
2022/11/07 00:30:43;;;;;;;;;2.67;2.67;;;;;12.38;77.79;100407.50;5076258;28;45394;-56
2022/11/07 00:33:08;;;;;;;;;3.67;2.67;;;;;12.38;78.06;100399.59;5076370;28;45346;-59
2022/11/07 00:35:34;;;;;;;;;3.67;3.67;;;;;12.39;78.03;100416.25;5076172;28;45428;-58
2022/11/07 00:37:59;;;;;;;;;2.67;2.67;;;;;12.38;78.32;100404.84;5076419;28;45370;-55
2022/11/07 00:40:24;;;;;;;;;7.00;5.00;;;;;12.38;78.34;100411.88;5075901;28;54830;-53
2022/11/07 00:42:50;;;;;;;;;4.33;4.33;;;;;12.39;78.25;100410.97;5075407;28;45619;-54
2022/11/07 00:45:15;;;;;;;;;4.00;3.00;;;;;12.42;77.36;100417.91;5075992;28;46325;-54
2022/11/07 00:47:40;;;;;;;;;3.00;3.00;;;;;12.42;77.85;100415.25;5057292;28;45447;-54
2022/11/07 00:50:06;;;;;;;;;4.67;3.00;;;;;12.43;77.73;100412.53;5057691;28;45478;-60
2022/11/07 00:52:32;;;;;;;;;4.33;3.00;;;;;12.43;78.13;100407.25;5075902;28;45481;-57
2022/11/07 00:54:57;;;;;;;;;3.00;3.00;;;;;12.46;77.92;100414.19;5075814;28;46283;-57
2022/11/07 00:57:22;;;;;;;;;4.33;4.00;;;;;12.46;77.49;100407.13;5076043;28;45449;-57
2022/11/07 00:59:48;;;;;;;;;7.00;4.00;;;;;12.46;78.00;100403.63;5075931;28;45939;-58
2022/11/07 01:02:13;;;;;;;;;4.33;4.33;;;;;12.45;77.82;100402.78;5075931;28;45452;-57
2022/11/07 01:07:23;;;;;;;;;4.67;4.00;;;;;12.47;78.23;100408.84;5076011;28;45478;-57
2022/11/07 01:09:48;;;;;;;;;2.67;2.67;;;;;12.47;78.30;100400.94;5075701;28;45465;-57
2022/11/07 01:12:13;;;;;;;;;4.67;4.00;;;;;12.46;77.93;100401.84;5057813;28;45630;-57
2022/11/07 01:14:39;;;;;;;;;5.67;4.67;;;;;12.47;77.89;100408.00;5075320;27;46040;-58
2022/11/07 01:17:04;;;;;;;;;4.67;3.67;;;;;12.44;77.81;100394.91;5075459;28;45411;-57
2022/11/07 01:19:29;;;;;;;;;6.00;4.00;;;;;12.46;77.90;100408.91;5075790;28;45723;-58
2022/11/07 01:21:55;;;;;;;;;6.00;5.00;;;;;12.47;77.97;100413.28;5075528;28;45517;-58
2022/11/07 01:24:20;;;;;;;;;7.67;3.00;;;;;12.48;78.19;100422.88;5075421;28;46026;-58
2022/11/07 01:26:50;;;;;;;;;7.67;7.00;;;;;12.47;77.87;100422.03;5075590;28;45487;-59
2022/11/07 01:29:17;;;;;;;;;3.33;2.67;;;;;12.47;77.71;100413.28;5075582;28;45401;-59
2022/11/07 01:31:43;;;;;;;;;3.33;3.00;;;;;12.49;78.13;100422.81;5075250;28;45660;-57
2022/11/07 01:34:08;;;;;;;;;3.00;3.00;;;;;12.50;77.89;100419.25;5075266;28;45452;-58
2022/11/07 01:36:33;;;;;;;;;2.67;2.33;;;;;12.50;77.90;100426.31;5075416;28;45473;-59
2022/11/07 01:38:59;;;;;;;;;5.00;5.00;;;;;12.52;77.39;100425.31;5075496;28;45501;-60
2022/11/07 01:41:29;;;;;;;;;5.33;5.33;;;;;12.52;77.41;100427.97;5075565;28;45517;-57
2022/11/07 01:43:56;;;;;;;;;4.33;4.33;;;;;12.52;77.22;100435.00;5075357;28;46230;-56
2022/11/07 01:46:29;;;;;;;;;5.00;3.33;;;;;12.51;77.49;100428.88;5075389;28;45413;-56
2022/11/07 01:49:12;;;;;;;;;4.00;4.00;;;;;12.53;77.63;100434.94;5075405;28;45381;-59
2022/11/07 01:51:44;;;;;;;;;4.33;3.00;;;;;12.54;77.30;100431.34;5063205;28;45367;-57
2022/11/07 01:54:12;;;;;;;;;4.33;3.00;;;;;12.57;77.93;100430.34;5075024;28;45518;-58
2022/11/07 01:56:40;;;;;;;;;5.00;4.33;;;;;12.58;77.39;100425.03;5075189;28;45466;-57
2022/11/07 01:59:07;;;;;;;;;2.67;2.67;;;;;12.57;77.77;100433.00;5075409;28;45486;-57
2022/11/07 02:01:33;;;;;;;;;5.33;3.00;;;;;12.55;77.40;100434.88;5075107;28;45590;-59
2022/11/07 02:03:59;;;;;;;;;3.00;3.00;;;;;12.56;77.54;100436.56;5074586;28;45472;-57
2022/11/07 02:06:38;;;;;;;;;4.67;3.00;;;;;12.56;77.41;100436.56;5075042;28;45500;-59
2022/11/07 02:09:04;;;;;;;;;5.00;4.00;;;;;12.55;77.82;100438.38;5075029;28;45410;-59
2022/11/07 02:11:29;;;;;;;;;5.00;3.67;;;;;12.55;77.44;100427.81;5075416;28;45431;-56
2022/11/07 02:13:55;;;;;;;;;6.67;6.00;;;;;12.57;77.68;100439.16;5075160;27;46269;-59
2022/11/07 02:16:20;;;;;;;;;5.67;4.33;;;;;12.58;77.91;100434.72;5056169;28;45568;-55
2022/11/07 02:18:46;;;;;;;;;4.00;4.00;;;;;12.57;77.05;100427.72;5078643;28;45448;-54
2022/11/07 02:21:21;;;;;;;;;4.33;3.67;;;;;12.57;77.77;100430.34;5078634;28;45560;-59
2022/11/07 02:23:52;;;;;;;;;5.67;5.00;;;;;12.60;78.00;100438.16;5078354;28;45459;-57
2022/11/07 02:26:18;;;;;;;;;2.33;2.00;;;;;12.60;77.29;100439.00;5078546;28;45533;-59
2022/11/07 02:28:46;;;;;;;;;4.67;2.33;;;;;12.59;77.63;100432.00;5078309;28;45391;-59
2022/11/07 02:31:11;;;;;;;;;6.00;5.00;;;;;12.59;77.57;100434.63;5078487;28;45510;-58
2022/11/07 02:33:37;;;;;;;;;3.33;3.33;;;;;12.58;77.29;100440.84;5077970;28;45421;-55
2022/11/07 02:36:03;;;;;;;;;3.33;2.33;;;;;12.59;77.23;100446.97;5078145;28;45403;-59
2022/11/07 02:38:32;;;;;;;;;7.00;4.33;;;;;12.57;77.65;100444.44;5078428;28;45482;-57
2022/11/07 02:41:10;;;;;;;;;7.00;4.67;;;;;12.59;76.84;100441.69;5078055;28;45381;-60
2022/11/07 02:43:40;;;;;;;;;6.67;3.00;;;;;12.57;77.84;100443.56;5078056;28;46416;-59
2022/11/07 02:46:08;;;;;;;;;6.00;2.00;;;;;12.62;77.56;100443.34;5077382;28;45474;-57
2022/11/07 02:48:44;;;;;;;;;3.33;2.00;;;;;12.61;76.76;100434.59;5078205;28;45344;-55
2022/11/07 02:51:09;;;;;;;;;3.33;3.00;;;;;12.59;77.55;100434.63;5077991;28;45406;-59
2022/11/07 02:53:34;;;;;;;;;4.33;3.67;;;;;12.57;76.99;100425.97;5077752;28;46087;-59
2022/11/07 02:56:00;;;;;;;;;5.00;4.00;;;;;12.61;77.24;100424.03;5077818;28;45591;-57
2022/11/07 02:58:25;;;;;;;;;5.67;4.00;;;;;12.63;77.49;100423.94;5078010;28;45355;-55
2022/11/07 03:00:50;;;;;;;;;5.33;3.00;;;;;12.63;76.82;100421.31;5078054;28;45606;-60
2022/11/07 03:03:16;;;;;;;;;10.33;4.33;;;;;12.61;76.87;100410.84;5077713;28;46164;-56
2022/11/07 03:05:42;;;;;;;;;6.00;5.00;;;;;12.64;77.32;100418.59;5077862;28;45450;-60
2022/11/07 03:08:07;;;;;;;;;3.33;3.33;;;;;12.62;77.47;100414.31;5077437;28;49010;-57
2022/11/07 03:10:33;;;;;;;;;4.33;2.67;;;;;12.65;77.08;100415.03;5078557;28;45363;-56
2022/11/07 03:12:58;;;;;;;;;3.00;3.00;;;;;12.66;76.91;100419.41;5069010;27;46041;-59
2022/11/07 03:15:23;;;;;;;;;4.67;3.00;;;;;12.67;76.88;100426.38;5077673;28;45462;-59
2022/11/07 03:17:49;;;;;;;;;4.67;3.00;;;;;12.68;76.82;100430.75;5077289;28;45509;-59
2022/11/07 03:20:14;;;;;;;;;4.00;2.00;;;;;12.68;77.18;100424.59;5077426;28;45701;-57
2022/11/07 03:22:39;;;;;;;;;7.00;3.00;;;;;12.68;76.43;100433.38;5077355;28;45355;-56
2022/11/07 03:25:06;;;;;;;;;4.67;3.00;;;;;12.67;76.90;100433.44;5077536;28;45375;-56
2022/11/07 03:27:31;;;;;;;;;2.33;2.33;;;;;12.68;77.03;100436.03;5077239;28;45375;-58
2022/11/07 03:29:56;;;;;;;;;5.33;4.33;;;;;12.65;76.88;100436.13;5075376;28;45644;-58
2022/11/07 03:32:22;;;;;;;;;2.00;2.00;;;;;12.69;76.95;100439.50;5076864;28;47948;-57
2022/11/07 03:34:47;;;;;;;;;5.33;4.33;;;;;12.70;76.87;100438.56;5077265;28;45339;-59
2022/11/07 03:37:12;;;;;;;;;3.00;3.00;;;;;12.70;76.54;100443.84;5077561;28;45518;-57
2022/11/07 03:39:38;;;;;;;;;5.33;4.00;;;;;12.67;76.90;100442.19;5077313;28;45343;-60
2022/11/07 03:42:03;;;;;;;;;4.67;4.00;;;;;12.68;76.85;100436.03;5077194;28;46192;-61
2022/11/07 03:44:29;;;;;;;;;3.67;3.00;;;;;12.69;76.50;100431.59;5077179;28;45497;-58
2022/11/07 03:46:54;;;;;;;;;5.00;4.00;;;;;12.70;76.53;100426.22;5077245;28;45744;-59
2022/11/07 03:49:19;;;;;;;;;3.00;3.00;;;;;12.69;76.89;100435.06;5077049;28;45467;-58
2022/11/07 03:51:45;;;;;;;;;5.33;4.00;;;;;12.67;76.87;100422.88;5058599;28;47981;-58
2022/11/07 03:54:10;;;;;;;;;7.00;3.00;;;;;12.69;76.72;100431.59;5076985;28;45803;-55
2022/11/07 03:56:35;;;;;;;;;2.33;2.33;;;;;12.70;77.26;100428.00;5076991;28;45789;-56
2022/11/07 03:59:01;;;;;;;;;5.00;4.00;;;;;12.69;77.46;100429.81;5077075;28;45528;-57
2022/11/07 04:01:26;;;;;;;;;4.67;3.00;;;;;12.70;77.03;100420.94;5076490;28;45495;-54
2022/11/07 04:03:52;;;;;;;;;4.67;4.67;;;;;12.70;77.13;100420.09;5076995;28;45404;-58
2022/11/07 04:06:18;;;;;;;;;4.00;4.00;;;;;12.69;77.00;100416.59;5077042;28;45471;-57
2022/11/07 04:08:43;;;;;;;;;3.00;3.00;;;;;12.72;77.12;100426.16;5076850;28;45569;-58
2022/11/07 04:17:17;;;;;;;;;4.67;3.33;;;;;12.72;77.04;100420.88;5076973;28;54895;-60
2022/11/07 04:19:25;;;;;;;;;3.33;3.00;;;;;12.71;77.06;100413.91;5075400;28;45443;-59
2022/11/07 04:21:50;;;;;;;;;3.67;3.67;;;;;12.70;76.94;100406.91;5074971;28;46030;-60
2022/11/07 04:24:16;;;;;;;;;3.00;3.00;;;;;12.70;77.01;100406.91;5074898;28;45404;-60
2022/11/07 04:29:24;;;;;;;;;5.00;3.00;;;;;12.71;77.02;100417.41;5075174;28;45419;-55
2022/11/07 04:31:50;;;;;;;;;4.33;3.33;;;;;12.71;77.12;100435.03;5074401;28;59466;-58
2022/11/07 04:34:15;;;;;;;;;3.33;3.00;;;;;12.71;77.19;100433.22;5074427;28;51808;-57
2022/11/07 04:36:40;;;;;;;;;4.33;3.33;;;;;12.70;77.51;100428.88;5074618;28;53250;-59
2022/11/07 04:39:06;;;;;;;;;6.00;4.00;;;;;12.71;77.27;100425.31;5073642;28;45575;-57
2022/11/07 04:41:31;;;;;;;;;3.33;3.33;;;;;12.73;77.33;100425.22;5074725;28;46098;-58
2022/11/07 04:43:56;;;;;;;;;4.00;2.67;;;;;12.75;77.18;100426.00;5074642;28;45416;-57
2022/11/07 04:46:23;;;;;;;;;5.00;3.00;;;;;12.74;77.35;100432.22;5074456;28;50879;-56
2022/11/07 04:48:48;;;;;;;;;7.00;3.33;;;;;12.77;77.47;100432.09;5074885;28;45455;-58
2022/11/07 04:51:20;;;;;;;;;6.00;5.00;;;;;12.76;77.10;100439.16;5074309;28;45394;-55
2022/11/07 04:53:46;;;;;;;;;1.67;1.67;;;;;12.78;77.45;100432.00;5073802;28;45511;-54
2022/11/07 04:56:11;;;;;;;;;3.33;3.33;;;;;12.80;77.46;100434.56;5074551;28;45366;-60
2022/11/07 04:58:36;;;;;;;;;4.33;1.67;;;;;12.80;77.65;100435.44;5074560;28;45418;-54
2022/11/07 05:01:02;;;;;;;;;4.33;3.00;;;;;12.79;77.87;100432.88;5073472;28;45393;-59
2022/11/07 05:03:27;;;;;;;;;3.00;2.00;;;;;12.78;77.74;100437.28;5074579;28;45436;-59
2022/11/07 05:05:52;;;;;;;;;5.00;3.67;;;;;12.81;77.38;100436.28;5074663;28;45413;-56
2022/11/07 05:08:18;;;;;;;;;2.33;2.33;;;;;12.78;77.39;100434.63;5074282;28;45612;-59
2022/11/07 05:10:43;;;;;;;;;3.00;3.00;;;;;12.79;77.78;100430.25;5074254;28;46309;-59
2022/11/07 05:13:08;;;;;;;;;3.00;3.00;;;;;12.81;77.46;100426.59;5073969;28;61911;-58
2022/11/07 05:15:34;;;;;;;;;5.00;2.67;;;;;12.81;77.48;100416.03;5031525;28;1370762;-53
2022/11/07 05:18:00;;;;;;;;;6.00;4.00;;;;;12.81;77.85;100413.41;5075368;28;45438;-57
2022/11/07 05:20:27;;;;;;;;;4.33;3.00;;;;;12.81;77.84;100415.16;5075626;28;45312;-58
2022/11/07 05:25:43;;;;;;;;;3.00;3.00;;;;;12.81;77.27;100418.69;5075930;28;45356;-59
2022/11/07 05:28:14;;;;;;;;;7.33;4.00;;;;;12.82;77.31;100420.38;5075468;28;46190;-59
2022/11/07 05:30:41;;;;;;;;;3.33;3.33;;;;;12.85;77.86;100429.94;5075362;28;45496;-58
2022/11/07 05:33:08;;;;;;;;;3.00;3.00;;;;;12.86;77.49;100436.06;5075586;28;45481;-59
2022/11/07 05:35:34;;;;;;;;;3.67;3.67;;;;;12.85;77.66;100429.09;5075422;28;45473;-56
2022/11/07 05:37:59;;;;;;;;;3.00;2.00;;;;;12.86;77.83;100438.72;5074975;28;45452;-57
2022/11/07 05:40:25;;;;;;;;;4.67;4.67;;;;;12.84;77.92;100441.41;5075336;28;45454;-58
2022/11/07 05:42:50;;;;;;;;;3.00;3.00;;;;;12.88;77.64;100447.41;5057220;28;45635;-55
2022/11/07 05:45:16;;;;;;;;;5.33;4.00;;;;;12.86;77.71;100441.34;5075306;28;45724;-56
2022/11/07 05:47:41;;;;;;;;;3.33;3.00;;;;;12.89;77.83;100451.75;5075219;28;45438;-52
2022/11/07 05:50:07;;;;;;;;;4.00;4.00;;;;;12.91;77.35;100447.25;5075228;28;45454;-57
2022/11/07 05:52:32;;;;;;;;;3.67;3.00;;;;;12.90;77.49;100446.41;5077542;28;45521;-59
2022/11/07 05:54:57;;;;;;;;;3.00;2.67;;;;;12.91;77.54;100449.91;5079060;28;45474;-55
2022/11/07 05:57:23;;;;;;;;;3.00;3.00;;;;;12.89;77.97;100454.41;5078437;28;55167;-56
2022/11/07 05:59:48;;;;;;;;;3.67;3.67;;;;;12.90;77.04;100456.13;5078708;28;45462;-57
2022/11/07 06:02:13;;;;;;;;;5.33;2.33;;;;;12.89;77.64;100451.75;5078929;28;45523;-57
2022/11/07 06:04:39;;;;;;;;;4.00;3.00;;;;;12.91;77.29;100452.53;5078709;28;45369;-57
2022/11/07 06:07:04;;;;;;;;;1.67;1.67;;;;;12.91;77.21;100456.03;5078190;28;55357;-58
2022/11/07 06:09:29;;;;;;;;;2.67;2.67;;;;;12.93;77.13;100446.25;5078507;28;45392;-57
2022/11/07 06:11:54;;;;;;;;;4.00;4.00;;;;;12.94;76.98;100458.53;5060836;28;46259;-58
2022/11/07 06:14:20;;;;;;;;;1.00;0.00;;;;;12.95;77.04;100448.81;5078323;27;46350;-57
2022/11/07 06:16:45;;;;;;;;;4.67;2.67;;;;;12.97;76.77;100455.72;5077798;28;49282;-58
2022/11/07 06:19:10;;;;;;;;;3.00;2.00;;;;;12.96;77.14;100450.53;5078529;28;45372;-56
2022/11/07 06:21:36;;;;;;;;;5.00;3.00;;;;;12.98;77.12;100452.19;5078476;28;45500;-56
2022/11/07 06:24:01;;;;;;;;;4.33;2.33;;;;;13.00;76.72;100452.09;5078227;28;45375;-57
2022/11/07 06:26:27;;;;;;;;;5.00;4.00;;;;;12.99;76.76;100460.94;5078256;28;45448;-57
2022/11/07 06:28:52;;;;;;;;;2.00;2.00;;;;;12.98;77.43;100469.81;5078250;28;45462;-58
2022/11/07 06:31:18;;;;;;;;;4.00;3.00;;;;;13.00;77.11;100468.81;5078357;28;45409;-57
2022/11/07 06:33:43;;;;;;;;;4.00;3.33;;;;;13.01;77.12;100474.94;5078106;28;45612;-59
2022/11/07 06:36:12;;;;;;;;;2.33;2.33;;;;;13.02;77.14;100469.56;5078194;28;46056;-60
2022/11/07 06:38:38;;;;;;;;;5.00;4.33;;;;;13.02;77.11;100479.28;5078322;28;45425;-57
2022/11/07 06:41:12;;;;;;;;;3.00;3.00;;;;;13.04;77.57;100482.72;5077794;28;45466;-60
2022/11/07 06:43:38;;;;;;;;;2.00;2.00;;;;;13.07;77.40;100476.44;5078482;28;45467;-58
2022/11/07 06:46:06;;;;;;;;;3.67;3.00;;;;;13.08;76.99;100476.34;5077800;28;46606;-60
2022/11/07 06:48:32;;;;;;;;;2.67;2.67;;;;;13.08;77.57;100475.50;5077518;28;45521;-60
2022/11/07 06:51:03;;;;;;;;;6.00;5.00;;;;;13.10;77.05;100476.28;5078017;28;45450;-58
2022/11/07 06:53:28;;;;;;;;;3.33;3.33;;;;;13.10;76.77;100473.66;5077915;28;45450;-53
2022/11/07 06:55:57;;;;;;;;;3.00;3.00;;;;;13.13;76.97;100492.81;5077639;28;45343;-57
2022/11/07 06:58:23;;;;;;;;;4.00;3.67;;;;;13.13;76.79;100487.53;5077863;28;45525;-57
2022/11/07 07:00:48;;;;;;;;;6.00;5.00;;;;;13.16;76.72;100494.47;5077783;28;45453;-59
2022/11/07 07:03:13;;;;;;;;;4.00;4.00;;;;;13.16;76.91;100497.09;5077391;28;45512;-56
2022/11/07 07:05:39;;;;;;;;;4.33;3.00;;;;;13.14;76.92;100494.56;5077630;28;45496;-56
2022/11/07 07:08:06;;;;;;;;;6.00;3.00;;;;;13.17;77.80;100493.56;5077356;28;45575;-57
2022/11/07 07:10:38;;;;;;;;;2.67;2.00;;;;;13.17;77.15;100491.75;5077755;28;45376;-53
2022/11/07 07:13:04;;;;;;;;;4.33;4.33;;;;;13.14;77.46;100491.91;5077613;27;45520;-55
2022/11/07 07:15:29;;;;;;;;;2.00;2.00;;;;;13.17;77.00;100498.84;5077598;28;45460;-56
2022/11/07 07:17:58;;;;;;;;;3.00;3.00;;;;;13.19;76.97;100497.84;5077049;28;45509;-56
2022/11/07 07:20:23;;;;;;;;;5.00;2.00;;;;;13.22;77.42;100499.47;5077692;28;45410;-57
2022/11/07 07:22:49;;;;;;;;;5.33;3.00;;;;;13.22;77.46;100505.59;5077441;28;45374;-52
2022/11/07 07:25:15;;;;;;;;;3.00;3.00;;;;;13.24;77.46;100502.88;5077115;28;45499;-56
2022/11/07 07:27:40;;;;;;;;;3.00;3.00;;;;;13.23;76.36;100506.47;5077542;28;45453;-57
2022/11/07 07:30:06;;;;;;;;;3.00;3.00;;;;;13.24;77.33;100509.03;5077270;28;45446;-56
2022/11/07 07:32:34;;;;;;;;;5.00;4.00;;;;;13.24;77.68;100511.69;5076991;28;45462;-55
2022/11/07 07:34:59;;;;;;;;;4.00;2.67;;;;;13.26;77.32;100512.47;5076445;28;45398;-58
2022/11/07 07:37:25;;;;;;;;;4.33;3.00;;;;;13.28;77.05;100514.19;5077026;28;45431;-57
2022/11/07 07:39:51;;;;;;;;;2.67;2.67;;;;;13.28;77.40;100515.06;5077397;28;45722;-57
2022/11/07 07:42:16;;;;;;;;;6.33;5.33;;;;;13.30;77.09;100512.31;5077359;28;45561;-58
2022/11/07 07:44:42;;;;;;;;;4.67;3.00;;;;;13.32;77.27;100513.97;5076888;28;46188;-55
2022/11/07 07:47:07;;;;;;;;;3.00;3.00;;;;;13.32;77.21;100513.09;5076908;28;45502;-57
2022/11/07 07:49:32;;;;;;;;;5.67;5.67;;;;;13.34;77.07;100509.47;5076888;28;45596;-59
2022/11/07 07:51:58;;;;;;;;;6.00;3.00;;;;;13.35;76.92;100508.56;5076113;28;46753;-59
2022/11/07 07:54:23;;;;;;;;;3.00;3.00;;;;;13.37;77.02;100504.03;5076362;28;50916;-59
2022/11/07 07:56:48;;;;;;;;;4.00;4.00;;;;;13.36;77.33;100507.63;5077094;28;45406;-59
2022/11/07 07:59:13;;;;;;;;;5.67;2.67;;;;;13.38;77.13;100508.41;5058333;28;45439;-57
2022/11/07 08:01:39;;;;;;;;;3.67;3.00;;;;;13.37;77.07;100509.31;5076893;28;45572;-58
2022/11/07 08:04:04;;;;;;;;;5.00;3.00;;;;;13.42;77.01;100517.88;5076323;28;57335;-56
2022/11/07 08:06:29;;;;;;;;;5.33;3.33;;;;;13.42;76.96;100517.88;5076708;28;45479;-58
2022/11/07 08:08:55;;;;;;;;;6.67;4.00;;;;;13.43;77.32;100524.88;5077113;28;45463;-57
2022/11/07 08:11:20;;;;;;;;;4.67;3.33;;;;;13.46;76.94;100531.81;5077320;28;45502;-57
2022/11/07 08:13:46;;;;;;;;;2.33;1.00;;;;;13.46;77.53;100526.53;5075966;28;45483;-60
2022/11/07 08:16:11;;;;;;;;;5.33;4.33;;;;;13.49;77.17;100531.66;5075968;28;45383;-58
2022/11/07 08:18:38;;;;;;;;;3.67;3.67;;;;;13.53;76.99;100535.84;5076793;28;45419;-56
2022/11/07 08:21:04;;;;;;;;;6.00;5.00;;;;;13.55;77.55;100549.84;5076624;28;45423;-58
2022/11/07 08:23:30;;;;;;;;;3.33;3.33;;;;;13.58;76.75;100548.84;5076173;28;46305;-58
2022/11/07 08:25:57;;;;;;;;;8.67;8.67;;;;;13.58;77.14;100547.06;5076375;28;45432;-60
2022/11/07 08:28:25;;;;;;;;;2.67;2.67;;;;;13.60;76.86;100553.13;5076674;28;45385;-54
2022/11/07 08:31:17;;;;;;;;;5.33;4.00;;;;;13.62;76.92;100548.63;5076413;28;45520;-60
2022/11/07 08:33:42;;;;;;;;;6.00;3.67;;;;;13.66;76.65;100547.53;5071072;28;46365;-59
2022/11/07 08:36:07;;;;;;;;;3.00;3.00;;;;;13.69;76.56;100536.81;5076166;28;45481;-58
2022/11/07 08:38:34;;;;;;;;;6.33;4.33;;;;;13.72;76.18;100551.66;5076419;28;45340;-58
2022/11/07 08:41:00;;;;;;;;;6.67;4.67;;;;;13.75;76.26;100548.88;5076278;28;45485;-54
2022/11/07 08:43:25;;;;;;;;;3.33;3.33;;;;;13.79;76.44;100550.44;5076110;28;45481;-55
2022/11/07 08:45:52;;;;;;;;;6.00;5.00;;;;;13.80;76.03;100538.06;5075752;28;45485;-57
2022/11/07 08:48:17;;;;;;;;;5.67;5.33;;;;;13.84;76.57;100551.06;5076199;28;45477;-57
2022/11/07 08:50:44;;;;;;;;;4.00;4.00;;;;;13.87;76.41;100547.41;5075936;28;45472;-60
2022/11/07 08:53:10;;;;;;;;;3.67;3.67;;;;;13.87;76.36;100547.41;5075912;28;45409;-57
2022/11/07 08:55:36;;;;;;;;;5.00;5.00;;;;;13.88;75.71;100549.97;5075907;28;45489;-56
2022/11/07 08:58:05;;;;;;;;;3.00;2.00;;;;;13.89;76.42;100553.50;5075608;28;45378;-60
2022/11/07 09:00:32;;;;;;;;;3.00;2.00;;;;;13.91;76.15;100557.75;5075788;28;45465;-60
2022/11/07 09:03:02;;;;;;;;;4.00;3.00;;;;;13.91;75.97;100556.91;5075644;28;46065;-61
2022/11/07 09:05:28;;;;;;;;;3.00;3.00;;;;;13.95;76.38;100552.31;5075870;28;45406;-60
2022/11/07 09:07:53;;;;;;;;;3.00;3.00;;;;;13.94;75.76;100564.66;5074813;28;52472;-57
2022/11/07 09:10:18;;;;;;;;;3.33;3.33;;;;;13.93;76.37;100560.31;5075344;28;55839;-58
2022/11/07 09:12:45;;;;;;;;;3.33;3.00;;;;;13.92;75.88;100569.19;5075101;28;51344;-60
2022/11/07 09:15:11;;;;;;;;;3.00;3.00;;;;;13.93;75.96;100576.19;5075780;28;45460;-58
2022/11/07 09:17:36;;;;;;;;;4.67;3.67;;;;;13.92;75.86;100575.34;5075427;28;45495;-56
2022/11/07 09:20:01;;;;;;;;;3.33;3.33;;;;;13.95;76.34;100571.69;5075575;28;45684;-57
2022/11/07 09:22:27;;;;;;;;;3.33;3.33;;;;;13.96;75.67;100576.03;5075416;28;46029;-57
2022/11/07 09:24:53;;;;;;;;;4.00;4.00;;;;;13.97;75.76;100561.91;5075404;28;45865;-58
2022/11/07 09:27:18;;;;;;;;;2.67;2.67;;;;;13.98;75.61;100566.25;5075375;28;45456;-58
2022/11/07 09:29:43;;;;;;;;;3.67;3.67;;;;;13.98;75.53;100566.25;5075362;28;45626;-58
2022/11/07 09:32:09;;;;;;;;;6.00;4.33;;;;;14.03;76.04;100558.94;5075351;28;45363;-58
2022/11/07 09:34:34;;;;;;;;;4.00;3.00;;;;;14.08;75.93;100569.28;5075228;28;45422;-58
2022/11/07 09:37:01;;;;;;;;;4.00;4.00;;;;;14.09;75.44;100571.00;5075265;28;45402;-55
2022/11/07 09:39:26;;;;;;;;;2.33;2.33;;;;;14.11;75.40;100563.84;5075447;28;45509;-57
2022/11/07 09:42:09;;;;;;;;;4.00;3.00;;;;;14.12;75.08;100558.47;5056539;28;47988;-56
2022/11/07 09:44:49;;;;;;;;;5.00;4.00;;;;;14.15;75.13;100562.75;5058411;28;45446;-60
2022/11/07 09:47:18;;;;;;;;;3.00;3.00;;;;;14.17;75.36;100558.22;5074847;28;45478;-58
2022/11/07 09:49:53;;;;;;;;;3.00;3.00;;;;;14.20;75.41;100567.81;5074655;28;45416;-56
2022/11/07 09:52:24;;;;;;;;;3.00;2.00;;;;;14.23;75.17;100557.91;5074750;28;45544;-57
2022/11/07 09:55:19;;;;;;;;;4.00;3.67;;;;;14.26;75.33;100573.63;5061499;28;45440;-59
2022/11/07 09:57:45;;;;;;;;;3.00;2.00;;;;;14.29;74.94;100576.13;5020947;28;45544;-57
2022/11/07 10:00:15;;;;;;;;;3.67;3.00;;;;;14.31;75.16;100563.66;5074878;28;45562;-60
2022/11/07 10:02:51;;;;;;;;;4.67;3.00;;;;;14.31;73.79;100571.59;5074503;28;46335;-58
2022/11/07 10:05:43;;;;;;;;;3.00;3.00;;;;;14.32;74.56;100578.63;5074625;28;45457;-58
2022/11/07 10:08:15;;;;;;;;;4.00;3.33;;;;;14.35;75.19;100575.81;5074765;28;45473;-55
2022/11/07 10:11:05;;;;;;;;;3.67;2.00;;;;;14.36;74.46;100574.03;5075113;28;45568;-57
2022/11/07 10:14:00;;;;;;;;;3.67;3.00;;;;;14.40;73.75;100569.41;5075254;27;46216;-57
2022/11/07 10:16:39;;;;;;;;;3.00;2.33;;;;;14.45;74.07;100567.38;5065470;28;45557;-54
2022/11/07 10:19:40;;;;;;;;;2.33;2.33;;;;;14.50;74.61;100557.41;5075043;28;45446;-56
2022/11/07 10:22:29;;;;;;;;;6.67;4.00;;;;;14.57;73.27;100583.53;5074915;28;45443;-59
2022/11/07 10:25:17;;;;;;;;;4.00;2.33;;;;;14.59;73.32;100567.56;5074583;28;45884;-58
2022/11/07 10:27:46;;;;;;;;;3.33;3.33;;;;;14.66;73.66;100557.50;5074747;28;45497;-57
2022/11/07 10:30:17;;;;;;;;;3.67;3.00;;;;;14.71;73.50;100545.72;5074666;28;45394;-56
2022/11/07 10:32:55;;;;;;;;;3.00;3.00;;;;;14.77;72.99;100555.13;5074567;28;45499;-56
2022/11/07 10:35:25;;;;;;;;;5.00;3.67;;;;;14.80;73.13;100558.50;5074479;28;45488;-56
2022/11/07 10:37:56;;;;;;;;;2.33;2.33;;;;;14.82;72.27;100557.53;5075577;28;46430;-57
2022/11/07 10:40:25;;;;;;;;;4.33;3.00;;;;;14.83;73.09;100556.59;5077881;28;45400;-58
2022/11/07 10:42:52;;;;;;;;;5.33;3.33;;;;;14.86;73.02;100564.41;5078107;28;45577;-59
2022/11/07 10:45:17;;;;;;;;;3.33;3.33;;;;;14.87;72.83;100558.16;5077734;28;46241;-57
2022/11/07 10:47:56;;;;;;;;;5.00;5.00;;;;;14.88;72.82;100554.56;5077637;28;45695;-53
2022/11/07 10:50:22;;;;;;;;;5.67;2.33;;;;;14.86;72.11;100557.31;5078092;28;45408;-59
2022/11/07 10:52:53;;;;;;;;;4.00;3.67;;;;;14.88;72.30;100559.84;5077952;28;45636;-58
2022/11/07 10:55:18;;;;;;;;;3.00;3.00;;;;;14.86;72.47;100554.66;5078003;28;46072;-55
2022/11/07 10:57:50;;;;;;;;;5.00;3.00;;;;;14.85;72.56;100555.56;5077664;28;45512;-58
2022/11/07 11:00:30;;;;;;;;;3.67;3.67;;;;;14.87;72.35;100561.66;5077984;28;45468;-59
2022/11/07 11:02:56;;;;;;;;;4.00;3.00;;;;;14.88;72.25;100554.56;5077943;28;45454;-58
2022/11/07 11:05:27;;;;;;;;;4.00;4.00;;;;;14.89;72.17;100564.22;5077668;28;45477;-60
2022/11/07 11:07:55;;;;;;;;;5.00;4.00;;;;;14.92;72.81;100561.41;5077496;28;45552;-58
2022/11/07 11:10:22;;;;;;;;;2.33;2.33;;;;;14.96;72.11;100545.28;5077513;28;45453;-58
2022/11/07 11:12:49;;;;;;;;;6.00;4.00;;;;;14.97;71.87;100562.88;5077083;27;45438;-56
2022/11/07 11:15:16;;;;;;;;;5.33;3.00;;;;;14.99;72.23;100553.06;5077320;28;45977;-54
2022/11/07 11:17:41;;;;;;;;;5.67;3.00;;;;;15.01;72.24;100547.66;5076976;28;45541;-60
2022/11/07 11:20:31;;;;;;;;;5.00;4.00;;;;;15.06;72.63;100548.25;5076980;28;45571;-58
2022/11/07 11:22:58;;;;;;;;;5.33;3.67;;;;;15.08;71.70;100548.19;5077347;28;45534;-58
2022/11/07 11:25:24;;;;;;;;;4.33;3.00;;;;;15.06;72.29;100550.91;5077420;28;46004;-58
2022/11/07 11:28:00;;;;;;;;;3.00;2.33;;;;;15.07;71.65;100547.34;5058832;28;45340;-57
2022/11/07 11:30:25;;;;;;;;;5.00;4.00;;;;;15.10;72.10;100547.19;5077449;28;45471;-57
2022/11/07 11:33:07;;;;;;;;;5.00;4.00;;;;;15.13;71.37;100531.09;5077092;28;45456;-60
2022/11/07 11:35:54;;;;;;;;;4.67;3.00;;;;;15.22;70.68;100551.78;5076705;28;46032;-59
2022/11/07 11:38:38;;;;;;;;;4.00;4.00;;;;;15.27;70.90;100540.94;5077087;28;45452;-60
2022/11/07 11:41:15;;;;;;;;;7.00;4.00;;;;;15.28;70.98;100547.94;5076973;28;45451;-57